Time;durP1;ratioP1;P1;durP2;ratioP2;P2;SDS_P1;SDS_P2;PMS_P1;PMS_P2;Temp;Humidity;BMP_temperature;BMP_pressure;BME280_temperature;BME280_humidity;BME280_pressure;Samples;Min_cycle;Max_cycle;Signal;HPM_P1;HPM_P2
2021/09/07 00:00:14;;;;;;;10.50;5.72;;;8.50;63.70;;;;;;4843163;29;20034;-62
2021/09/07 00:02:39;;;;;;;10.60;6.22;;;8.40;63.70;;;;;;4843257;29;20030;-62
2021/09/07 00:05:06;;;;;;;10.23;5.50;;;8.40;63.80;;;;;;4843093;29;20032;-62
2021/09/07 00:07:32;;;;;;;9.23;5.15;;;8.30;63.60;;;;;;4858625;29;20036;-62
2021/09/07 00:09:58;;;;;;;10.68;6.40;;;8.30;63.60;;;;;;4861282;29;20116;-63
2021/09/07 00:12:23;;;;;;;11.85;6.53;;;8.30;64.40;;;;;;4861450;29;20037;-62
2021/09/07 00:14:49;;;;;;;16.05;9.77;;;8.20;64.30;;;;;;4861718;29;20030;-63
2021/09/07 00:17:15;;;;;;;14.90;8.30;;;8.30;65.40;;;;;;4861246;29;20053;-62
2021/09/07 00:19:40;;;;;;;15.70;9.70;;;8.20;65.20;;;;;;4861479;29;20477;-62
2021/09/07 00:22:06;;;;;;;11.98;7.15;;;8.10;65.70;;;;;;4861099;29;20109;-63
2021/09/07 00:24:32;;;;;;;10.73;6.32;;;8.10;65.10;;;;;;4844780;29;20042;-64
2021/09/07 00:26:58;;;;;;;10.80;5.90;;;8.10;64.90;;;;;;4861179;29;20427;-63
2021/09/07 00:29:25;;;;;;;11.20;6.43;;;8.10;65.00;;;;;;4844511;29;20033;-62
2021/09/07 00:31:50;;;;;;;11.68;6.95;;;8.10;65.20;;;;;;4861067;29;20442;-62
2021/09/07 00:34:16;;;;;;;12.35;6.60;;;8.10;65.20;;;;;;4860943;29;20104;-63
2021/09/07 00:36:42;;;;;;;14.98;7.88;;;8.20;65.00;;;;;;4860863;29;20025;-63
2021/09/07 00:39:10;;;;;;;15.43;9.00;;;8.20;65.30;;;;;;4860835;29;20036;-61
2021/09/07 00:41:38;;;;;;;16.05;9.27;;;8.20;65.60;;;;;;4860989;29;20105;-63
2021/09/07 00:44:18;;;;;;;15.73;9.90;;;8.20;65.70;;;;;;4861181;29;20041;-63
2021/09/07 00:46:52;;;;;;;21.65;10.93;;;8.20;65.90;;;;;;4860915;29;20113;-62
2021/09/07 00:49:18;;;;;;;17.27;10.00;;;8.20;66.10;;;;;;4860698;29;20038;-62
2021/09/07 00:51:46;;;;;;;14.60;9.00;;;8.10;65.90;;;;;;4860464;29;20042;-62
2021/09/07 00:54:12;;;;;;;17.63;9.13;;;8.10;66.00;;;;;;4860704;29;20064;-62
2021/09/07 00:56:40;;;;;;;17.33;10.20;;;8.00;66.10;;;;;;4860729;29;20035;-62
2021/09/07 00:59:06;;;;;;;17.58;10.43;;;8.00;66.80;;;;;;4860655;29;20443;-62
2021/09/07 01:01:32;;;;;;;17.65;10.13;;;8.00;67.20;;;;;;4860473;29;20133;-63
2021/09/07 01:03:58;;;;;;;16.77;10.05;;;7.90;67.10;;;;;;4860511;29;20116;-62
2021/09/07 01:06:24;;;;;;;16.05;9.75;;;7.80;67.30;;;;;;4860306;29;20084;-63
2021/09/07 01:08:49;;;;;;;15.95;9.60;;;7.70;67.40;;;;;;4860491;29;20108;-63
2021/09/07 01:11:18;;;;;;;17.88;9.50;;;7.70;67.80;;;;;;4860262;29;20039;-63
2021/09/07 01:13:44;;;;;;;16.25;9.35;;;7.60;67.70;;;;;;4860403;29;20062;-63
2021/09/07 01:16:10;;;;;;;17.63;10.70;;;7.60;67.60;;;;;;4860299;29;20109;-62
2021/09/07 01:18:35;;;;;;;16.85;10.45;;;7.60;68.20;;;;;;4860466;29;20105;-63
2021/09/07 01:21:05;;;;;;;14.90;8.93;;;7.50;68.20;;;;;;4860389;29;20037;-62
2021/09/07 01:23:31;;;;;;;16.90;9.55;;;7.50;68.30;;;;;;4860046;29;20060;-63
2021/09/07 01:25:56;;;;;;;15.93;10.27;;;7.40;68.50;;;;;;4860200;29;20029;-62
2021/09/07 01:28:24;;;;;;;15.80;9.18;;;7.40;68.90;;;;;;4860064;29;20021;-62
2021/09/07 01:30:49;;;;;;;13.10;7.63;;;7.40;68.80;;;;;;4863404;29;20033;-62
2021/09/07 01:33:16;;;;;;;12.68;7.55;;;7.40;68.80;;;;;;4867859;29;20026;-63
2021/09/07 01:35:41;;;;;;;16.60;8.80;;;7.40;68.60;;;;;;4859943;29;20025;-67
2021/09/07 01:38:07;;;;;;;13.70;8.35;;;7.50;68.90;;;;;;4860435;29;20093;-63
2021/09/07 01:40:33;;;;;;;15.70;9.45;;;7.50;68.70;;;;;;4859992;29;20030;-63
2021/09/07 01:42:58;;;;;;;17.17;9.73;;;7.60;68.90;;;;;;4859307;29;20044;-62
2021/09/07 01:45:24;;;;;;;17.45;9.65;;;7.60;68.60;;;;;;4860062;29;20033;-61
2021/09/07 01:47:50;;;;;;;18.98;10.48;;;7.70;68.80;;;;;;4859742;29;20038;-65
2021/09/07 01:50:16;;;;;;;16.67;9.80;;;7.80;68.90;;;;;;4843387;29;20080;-62
2021/09/07 01:52:43;;;;;;;15.77;10.05;;;7.80;68.70;;;;;;4859973;29;20089;-63
2021/09/07 01:55:09;;;;;;;18.33;10.68;;;7.80;68.60;;;;;;4853561;29;20412;-63
2021/09/07 01:57:35;;;;;;;18.73;10.60;;;7.80;68.80;;;;;;4878228;29;20033;-63
2021/09/07 02:00:00;;;;;;;17.63;10.10;;;7.80;68.60;;;;;;4878277;29;20027;-63
2021/09/07 02:02:26;;;;;;;16.02;10.18;;;7.80;68.60;;;;;;4878231;29;20033;-63
2021/09/07 02:04:51;;;;;;;16.77;10.15;;;7.80;68.70;;;;;;4878391;29;20033;-63
2021/09/07 02:07:17;;;;;;;19.90;11.63;;;7.80;68.40;;;;;;4878301;29;20029;-63
2021/09/07 02:09:43;;;;;;;19.20;11.68;;;7.90;69.00;;;;;;4878239;29;20045;-63
2021/09/07 02:12:09;;;;;;;19.13;10.90;;;8.00;69.00;;;;;;4878054;29;20040;-62
2021/09/07 02:14:34;;;;;;;20.95;12.02;;;8.00;69.00;;;;;;4878286;29;20029;-62
2021/09/07 02:17:00;;;;;;;19.83;11.82;;;8.00;69.10;;;;;;4878120;29;20037;-62
2021/09/07 02:19:26;;;;;;;18.38;10.43;;;8.00;69.00;;;;;;4878138;29;20044;-63
2021/09/07 02:21:51;;;;;;;17.42;10.75;;;8.00;68.80;;;;;;4878262;29;20839;-63
2021/09/07 02:24:17;;;;;;;18.73;10.70;;;8.00;69.00;;;;;;4877996;29;20128;-63
2021/09/07 02:26:43;;;;;;;17.48;10.25;;;8.00;68.90;;;;;;4877959;29;20060;-62
2021/09/07 02:29:09;;;;;;;15.50;9.50;;;8.10;69.50;;;;;;4878063;29;20479;-62
2021/09/07 02:31:35;;;;;;;18.88;10.30;;;8.00;68.80;;;;;;4877825;29;20054;-63
2021/09/07 02:34:01;;;;;;;17.38;10.60;;;8.10;69.10;;;;;;4877986;29;20061;-62
2021/09/07 02:36:27;;;;;;;18.83;11.38;;;8.10;69.10;;;;;;4877925;29;20057;-62
2021/09/07 02:38:54;;;;;;;18.33;11.90;;;8.10;69.20;;;;;;4877959;29;20080;-63
2021/09/07 02:41:21;;;;;;;18.88;11.82;;;8.20;69.20;;;;;;4877977;29;20032;-62
2021/09/07 02:43:47;;;;;;;18.40;11.20;;;8.20;68.90;;;;;;4873522;29;20061;-62
2021/09/07 02:46:13;;;;;;;18.33;11.18;;;8.20;68.60;;;;;;4859225;29;20057;-63
2021/09/07 02:48:39;;;;;;;17.50;10.60;;;8.20;68.50;;;;;;4859194;29;20021;-64
2021/09/07 02:51:05;;;;;;;20.33;12.33;;;8.20;68.30;;;;;;4859442;29;20438;-62
2021/09/07 02:53:31;;;;;;;19.52;11.55;;;8.20;68.30;;;;;;4859900;29;20100;-62
2021/09/07 02:55:56;;;;;;;18.73;11.27;;;8.10;68.30;;;;;;4862846;29;20533;-62
2021/09/07 02:58:22;;;;;;;18.08;10.85;;;8.10;68.50;;;;;;4862513;29;20025;-62
2021/09/07 03:00:48;;;;;;;19.52;11.48;;;8.00;68.60;;;;;;4862584;29;20029;-62
2021/09/07 03:03:13;;;;;;;18.10;10.88;;;7.90;68.80;;;;;;4862501;29;20382;-63
2021/09/07 03:05:39;;;;;;;21.35;12.55;;;7.80;69.00;;;;;;4862820;29;20030;-63
2021/09/07 03:08:04;;;;;;;22.17;12.52;;;7.80;69.50;;;;;;4862794;29;20029;-62
2021/09/07 03:10:30;;;;;;;18.50;11.75;;;7.70;69.40;;;;;;4862659;29;20813;-63
2021/09/07 03:12:56;;;;;;;22.05;12.95;;;7.70;69.70;;;;;;4862163;29;20082;-63
2021/09/07 03:15:23;;;;;;;22.02;13.77;;;7.60;70.00;;;;;;4862284;29;20029;-63
2021/09/07 03:17:49;;;;;;;20.98;12.73;;;7.50;70.20;;;;;;4862635;29;20030;-64
2021/09/07 03:20:15;;;;;;;24.77;14.13;;;7.50;70.20;;;;;;4862331;29;20081;-63
2021/09/07 03:22:41;;;;;;;22.58;13.90;;;7.50;70.50;;;;;;4861303;29;20518;-63
2021/09/07 03:25:07;;;;;;;21.50;13.48;;;7.40;70.60;;;;;;4864866;29;20053;-63
2021/09/07 03:27:33;;;;;;;22.85;13.18;;;7.40;70.60;;;;;;4862207;29;20482;-63
2021/09/07 03:29:58;;;;;;;22.75;12.18;;;7.30;70.70;;;;;;4862031;29;20037;-62
2021/09/07 03:32:25;;;;;;;20.90;11.48;;;7.30;70.60;;;;;;4862024;29;20026;-64
2021/09/07 03:34:51;;;;;;;21.08;12.02;;;7.20;70.80;;;;;;4862236;29;20443;-62
2021/09/07 03:37:17;;;;;;;21.27;12.48;;;7.20;70.90;;;;;;4862140;29;20025;-62
2021/09/07 03:39:42;;;;;;;20.48;12.45;;;7.20;71.00;;;;;;4862198;29;20099;-62
2021/09/07 03:42:08;;;;;;;17.70;10.73;;;7.10;71.00;;;;;;4861909;29;20030;-62
2021/09/07 03:44:33;;;;;;;18.55;11.75;;;7.10;71.10;;;;;;4861686;29;20050;-63
2021/09/07 03:47:02;;;;;;;19.73;11.90;;;7.00;71.20;;;;;;4861793;29;20026;-64
2021/09/07 03:49:28;;;;;;;22.30;12.45;;;7.00;71.30;;;;;;4861723;29;20044;-65
2021/09/07 03:51:54;;;;;;;19.58;12.07;;;7.00;71.60;;;;;;4861713;29;20474;-63
2021/09/07 03:54:19;;;;;;;20.90;11.93;;;7.00;71.60;;;;;;4861860;29;20029;-64
2021/09/07 03:56:45;;;;;;;20.00;11.15;;;6.90;71.70;;;;;;4861920;29;20026;-62
2021/09/07 03:59:10;;;;;;;18.25;11.77;;;6.90;71.70;;;;;;4845303;29;20112;-63
2021/09/07 04:01:36;;;;;;;18.60;11.70;;;6.90;71.80;;;;;;4861587;29;20744;-63
2021/09/07 04:04:03;;;;;;;17.98;10.90;;;6.90;72.50;;;;;;4861649;29;20389;-64
2021/09/07 04:06:28;;;;;;;18.52;11.23;;;6.90;72.40;;;;;;4861253;29;20040;-63
2021/09/07 04:08:54;;;;;;;19.15;11.50;;;6.90;72.00;;;;;;4861279;29;20033;-63
2021/09/07 04:11:20;;;;;;;16.95;10.10;;;6.90;71.70;;;;;;4861466;29;20034;-63
2021/09/07 04:13:45;;;;;;;15.35;10.00;;;6.80;71.70;;;;;;4861421;29;20034;-64
2021/09/07 04:16:11;;;;;;;16.35;9.35;;;6.80;71.60;;;;;;4861363;29;20479;-64
2021/09/07 04:18:37;;;;;;;14.38;8.15;;;6.90;71.50;;;;;;4861605;29;20030;-64
2021/09/07 04:21:02;;;;;;;13.73;8.20;;;6.90;71.30;;;;;;4861570;29;20629;-63
2021/09/07 04:23:28;;;;;;;11.63;6.85;;;7.00;71.10;;;;;;4861052;29;20061;-63
2021/09/07 04:25:54;;;;;;;11.63;7.30;;;7.10;70.80;;;;;;4844770;29;20105;-64
2021/09/07 04:28:19;;;;;;;13.35;7.47;;;7.20;70.60;;;;;;4861091;29;20026;-64
2021/09/07 04:30:45;;;;;;;14.50;6.50;;;7.30;70.30;;;;;;4861046;29;20030;-63
2021/09/07 04:33:13;;;;;;;11.40;6.68;;;7.40;70.00;;;;;;4860807;29;20081;-63
2021/09/07 04:35:38;;;;;;;13.77;8.43;;;7.50;70.40;;;;;;4860805;29;20036;-63
2021/09/07 04:38:04;;;;;;;14.90;9.23;;;7.70;69.60;;;;;;4860954;29;20022;-64
2021/09/07 04:40:29;;;;;;;15.13;8.95;;;7.80;69.50;;;;;;4872288;29;20056;-64
2021/09/07 04:42:55;;;;;;;15.05;8.18;;;7.90;69.40;;;;;;4860987;29;20037;-64
2021/09/07 04:45:21;;;;;;;17.45;10.02;;;8.00;69.20;;;;;;4860670;29;20033;-63
2021/09/07 04:47:46;;;;;;;15.57;8.82;;;8.10;69.00;;;;;;4860849;29;20026;-66
2021/09/07 04:50:12;;;;;;;14.95;8.05;;;8.10;68.80;;;;;;4844315;29;20117;-63
2021/09/07 04:52:38;;;;;;;14.63;8.52;;;8.20;68.70;;;;;;4860863;29;20121;-64
2021/09/07 04:55:04;;;;;;;14.18;8.43;;;8.30;68.60;;;;;;4843949;29;20093;-64
2021/09/07 04:57:30;;;;;;;14.55;9.02;;;8.30;68.30;;;;;;4860453;29;20117;-64
2021/09/07 04:59:55;;;;;;;13.93;8.57;;;8.40;68.20;;;;;;4860563;29;20415;-63
2021/09/07 05:02:21;;;;;;;17.42;10.30;;;8.60;68.00;;;;;;4860623;29;20036;-64
2021/09/07 05:04:47;;;;;;;18.55;9.40;;;8.70;67.90;;;;;;4860359;29;20044;-64
2021/09/07 05:07:12;;;;;;;13.50;7.90;;;8.80;67.60;;;;;;4857955;29;20049;-64
2021/09/07 05:09:39;;;;;;;12.65;7.43;;;9.00;67.50;;;;;;4856437;29;20109;-64
2021/09/07 05:12:05;;;;;;;15.27;7.90;;;9.10;67.10;;;;;;4859853;29;20033;-64
2021/09/07 05:14:31;;;;;;;17.30;8.27;;;9.20;66.60;;;;;;4860745;29;20060;-64
2021/09/07 05:17:00;;;;;;;12.35;6.95;;;9.40;66.20;;;;;;4860052;29;20050;-65
2021/09/07 05:19:25;;;;;;;13.80;7.45;;;9.50;65.70;;;;;;4843605;29;20064;-65
2021/09/07 05:21:51;;;;;;;11.82;6.65;;;9.70;65.10;;;;;;4859927;29;20065;-65
2021/09/07 05:24:17;;;;;;;11.55;6.70;;;9.80;64.80;;;;;;4859946;29;20045;-65
2021/09/07 05:26:43;;;;;;;9.90;5.38;;;9.90;64.30;;;;;;4860135;29;20034;-65
2021/09/07 05:29:08;;;;;;;10.75;5.95;;;10.10;63.90;;;;;;4860008;29;20041;-64
2021/09/07 05:31:34;;;;;;;9.07;5.38;;;10.20;63.50;;;;;;4860044;29;20141;-63
2021/09/07 05:34:00;;;;;;;11.00;5.43;;;10.30;63.00;;;;;;4860202;29;20054;-64
2021/09/07 05:36:26;;;;;;;11.82;5.70;;;10.50;62.50;;;;;;4859981;29;20034;-64
2021/09/07 05:38:51;;;;;;;8.15;5.10;;;10.60;61.90;;;;;;4861161;29;20029;-64
2021/09/07 05:41:17;;;;;;;10.18;5.10;;;10.70;61.50;;;;;;4875907;29;20104;-64
2021/09/07 05:43:42;;;;;;;8.23;4.35;;;10.90;61.20;;;;;;4874313;29;20024;-65
2021/09/07 05:46:08;;;;;;;10.10;4.82;;;11.00;60.90;;;;;;4859977;29;20029;-65
2021/09/07 05:48:34;;;;;;;10.85;5.00;;;11.10;60.30;;;;;;4859667;29;20100;-64
2021/09/07 05:50:59;;;;;;;11.90;5.22;;;11.30;60.10;;;;;;4859665;29;20366;-65
2021/09/07 05:53:25;;;;;;;10.00;5.13;;;11.40;59.30;;;;;;4859831;29;20149;-65
2021/09/07 05:55:51;;;;;;;8.32;4.45;;;11.50;59.30;;;;;;4859567;29;20034;-64
2021/09/07 05:58:16;;;;;;;8.88;5.28;;;11.60;59.40;;;;;;4862288;29;20438;-64
2021/09/07 06:00:42;;;;;;;9.82;5.82;;;11.70;58.70;;;;;;4859849;29;20481;-64
2021/09/07 06:03:10;;;;;;;11.15;5.47;;;11.80;58.20;;;;;;4859899;29;20381;-64
2021/09/07 06:05:36;;;;;;;10.13;5.20;;;12.00;57.50;;;;;;4859571;29;20033;-66
2021/09/07 06:08:02;;;;;;;10.07;5.40;;;12.10;57.40;;;;;;4855713;29;20026;-64
2021/09/07 06:10:28;;;;;;;7.95;4.55;;;12.20;57.20;;;;;;4850085;29;20492;-64
2021/09/07 06:12:54;;;;;;;9.57;5.40;;;12.20;57.00;;;;;;4858501;29;20037;-65
2021/09/07 06:15:20;;;;;;;8.48;5.03;;;12.40;56.10;;;;;;4859289;29;20034;-65
2021/09/07 06:17:45;;;;;;;8.07;4.88;;;12.40;56.60;;;;;;4858998;29;20777;-63
2021/09/07 06:20:11;;;;;;;8.93;4.75;;;12.50;56.30;;;;;;4858819;29;20478;-64
2021/09/07 06:22:37;;;;;;;8.23;4.53;;;12.60;56.20;;;;;;4858527;29;20077;-65
2021/09/07 06:25:04;;;;;;;9.35;5.60;;;12.80;56.30;;;;;;4858605;29;20034;-64
2021/09/07 06:27:31;;;;;;;8.13;4.43;;;12.80;56.00;;;;;;4858904;29;20425;-65
2021/09/07 06:29:57;;;;;;;8.25;4.35;;;13.00;56.10;;;;;;4861983;29;20037;-65
2021/09/07 06:32:22;;;;;;;7.95;4.28;;;13.10;56.10;;;;;;4862672;29;20133;-64
2021/09/07 06:34:48;;;;;;;8.35;4.45;;;13.30;55.50;;;;;;4862738;29;20537;-64
2021/09/07 06:37:14;;;;;;;9.13;4.97;;;13.40;55.10;;;;;;4862388;29;20363;-65
2021/09/07 06:39:39;;;;;;;7.72;4.60;;;13.50;54.10;;;;;;4862425;29;20469;-64
2021/09/07 06:42:06;;;;;;;10.73;4.65;;;13.60;54.10;;;;;;4862597;29;20113;-65
2021/09/07 06:44:32;;;;;;;6.97;3.85;;;13.70;54.20;;;;;;4862731;29;20033;-64
2021/09/07 06:46:57;;;;;;;8.13;3.78;;;13.80;54.10;;;;;;4862450;29;20025;-65
2021/09/07 06:49:23;;;;;;;7.38;3.60;;;14.00;54.50;;;;;;4862484;29;20037;-64
2021/09/07 06:51:48;;;;;;;7.72;3.92;;;14.10;53.00;;;;;;4862121;29;20025;-66
2021/09/07 06:54:14;;;;;;;7.13;4.05;;;14.20;52.80;;;;;;4861731;29;20025;-64
2021/09/07 06:56:40;;;;;;;7.03;3.40;;;14.40;52.40;;;;;;4862185;29;20086;-63
2021/09/07 06:59:06;;;;;;;6.53;3.45;;;14.50;52.70;;;;;;4861473;29;20078;-65
2021/09/07 07:01:31;;;;;;;6.65;3.20;;;14.60;52.10;;;;;;4862041;29;20069;-65
2021/09/07 07:03:57;;;;;;;6.03;3.00;;;14.80;52.20;;;;;;4861472;29;20920;-65
2021/09/07 07:06:23;;;;;;;6.43;3.00;;;14.90;51.90;;;;;;4862166;29;20037;-65
2021/09/07 07:08:48;;;;;;;6.70;3.20;;;15.10;51.80;;;;;;4861922;29;20081;-64
2021/09/07 07:11:14;;;;;;;6.45;3.00;;;15.30;51.90;;;;;;4861883;29;20029;-65
2021/09/07 07:13:40;;;;;;;6.45;3.40;;;15.50;52.20;;;;;;4861521;29;20113;-64
2021/09/07 07:16:05;;;;;;;7.55;3.20;;;15.70;51.40;;;;;;4861987;29;20022;-65
2021/09/07 07:18:31;;;;;;;6.40;3.33;;;15.90;51.20;;;;;;4861817;29;20422;-66
2021/09/07 07:20:56;;;;;;;6.60;3.45;;;16.10;50.50;;;;;;4861175;29;20053;-65
2021/09/07 07:23:22;;;;;;;5.00;2.70;;;16.30;50.00;;;;;;4861678;29;20678;-64
2021/09/07 07:25:48;;;;;;;5.80;2.63;;;16.40;50.20;;;;;;4861299;29;21990;-64
2021/09/07 07:28:14;;;;;;;6.40;2.65;;;16.60;50.40;;;;;;4861841;29;20446;-64
2021/09/07 07:30:39;;;;;;;5.40;2.58;;;16.80;51.00;;;;;;4861226;29;20434;-64
2021/09/07 07:33:05;;;;;;;5.70;2.50;;;17.00;51.50;;;;;;4861648;29;20040;-64
2021/09/07 07:35:31;;;;;;;5.50;2.50;;;17.20;51.80;;;;;;4861734;29;20040;-64
2021/09/07 07:37:56;;;;;;;5.80;3.10;;;17.50;52.30;;;;;;4861406;29;20044;-64
2021/09/07 07:40:23;;;;;;;6.00;2.97;;;17.70;52.60;;;;;;4860826;29;20267;-66
2021/09/07 07:42:49;;;;;;;7.00;2.97;;;18.00;52.70;;;;;;4861858;29;20033;-64
2021/09/07 07:45:15;;;;;;;5.60;2.63;;;18.20;52.50;;;;;;4861623;29;20030;-64
2021/09/07 07:47:40;;;;;;;7.15;2.75;;;18.50;52.50;;;;;;4861682;29;20100;-63
2021/09/07 07:50:07;;;;;;;4.97;2.70;;;18.80;52.50;;;;;;4861124;29;20442;-65
2021/09/07 07:52:32;;;;;;;6.28;3.10;;;19.20;52.50;;;;;;4866972;29;20430;-64
2021/09/07 07:54:58;;;;;;;6.70;3.08;;;19.50;52.00;;;;;;4870669;29;20094;-65
2021/09/07 07:57:23;;;;;;;5.85;3.13;;;19.80;51.80;;;;;;4861081;29;20037;-64
2021/09/07 07:59:49;;;;;;;5.97;2.75;;;20.10;51.40;;;;;;4862902;29;20085;-65
2021/09/07 08:02:15;;;;;;;5.68;2.97;;;20.40;51.30;;;;;;4860149;29;20029;-65
2021/09/07 08:04:40;;;;;;;6.53;2.95;;;20.80;50.90;;;;;;4861276;29;20110;-65
2021/09/07 08:07:07;;;;;;;5.57;2.70;;;21.10;50.80;;;;;;4862238;29;20069;-64
2021/09/07 08:09:33;;;;;;;5.20;2.67;;;21.40;50.40;;;;;;4863398;29;20117;-65
2021/09/07 08:11:59;;;;;;;5.32;2.92;;;21.80;50.00;;;;;;4860321;29;20545;-66
2021/09/07 08:14:26;;;;;;;6.15;2.65;;;22.10;49.20;;;;;;4861284;29;20426;-67
2021/09/07 08:16:52;;;;;;;5.85;3.17;;;22.40;48.90;;;;;;4861292;29;20386;-66
2021/09/07 08:19:18;;;;;;;6.10;2.80;;;22.60;48.40;;;;;;4860986;29;20044;-66
2021/09/07 08:21:44;;;;;;;4.70;2.60;;;22.80;48.30;;;;;;4860954;29;20037;-66
2021/09/07 08:24:09;;;;;;;5.95;2.75;;;23.10;48.10;;;;;;4861360;29;20120;-66
2021/09/07 08:26:35;;;;;;;5.05;2.53;;;23.40;47.40;;;;;;4860976;29;20474;-65
2021/09/07 08:29:01;;;;;;;6.22;3.30;;;23.60;46.70;;;;;;4860835;29;20042;-65
2021/09/07 08:31:26;;;;;;;5.15;2.75;;;23.80;45.90;;;;;;4860395;29;20033;-64
2021/09/07 08:33:52;;;;;;;6.97;3.00;;;24.00;46.00;;;;;;4861074;29;20040;-65
2021/09/07 08:36:18;;;;;;;5.93;3.03;;;24.20;45.40;;;;;;4860673;29;20473;-66
2021/09/07 08:38:43;;;;;;;5.57;2.72;;;24.40;45.00;;;;;;4860700;29;20508;-67
2021/09/07 08:41:13;;;;;;;5.82;2.78;;;24.70;44.60;;;;;;4860816;29;20512;-65
2021/09/07 08:43:39;;;;;;;6.50;2.85;;;24.90;44.10;;;;;;4860820;29;20025;-66
2021/09/07 08:46:05;;;;;;;5.30;2.58;;;25.20;43.60;;;;;;4860248;29;20026;-68
2021/09/07 08:48:32;;;;;;;5.25;2.88;;;25.20;42.40;;;;;;4860350;29;20512;-66
2021/09/07 08:50:58;;;;;;;5.05;2.50;;;25.30;42.40;;;;;;4859789;29;20503;-65
2021/09/07 08:53:25;;;;;;;5.55;2.55;;;25.50;42.60;;;;;;4858292;29;20037;-66
2021/09/07 08:55:51;;;;;;;5.13;2.80;;;25.80;42.20;;;;;;4857956;29;20502;-64
2021/09/07 08:58:17;;;;;;;5.18;2.63;;;25.90;41.90;;;;;;4859725;29;20056;-64
2021/09/07 09:00:48;;;;;;;7.13;3.00;;;26.20;41.60;;;;;;4859466;29;20037;-65
2021/09/07 09:03:13;;;;;;;5.40;2.90;;;26.50;40.50;;;;;;4858616;29;20545;-64
2021/09/07 09:05:44;;;;;;;6.13;3.50;;;26.70;40.80;;;;;;4842604;29;20116;-67
2021/09/07 09:08:15;;;;;;;5.57;2.70;;;26.90;38.80;;;;;;4842881;29;20509;-66
2021/09/07 09:10:42;;;;;;;5.85;3.03;;;27.00;39.50;;;;;;4858973;29;20037;-65
2021/09/07 09:13:18;;;;;;;5.70;3.08;;;27.10;39.30;;;;;;4842230;29;20409;-65
2021/09/07 09:16:05;;;;;;;5.80;2.80;;;27.30;38.70;;;;;;4859271;29;20033;-65
2021/09/07 09:18:33;;;;;;;5.25;2.70;;;27.40;37.00;;;;;;4859910;29;20048;-65
2021/09/07 09:21:29;;;;;;;6.72;2.92;;;27.30;38.30;;;;;;4859056;29;20041;-65
2021/09/07 09:24:16;;;;;;;5.40;2.90;;;26.90;37.10;;;;;;4858282;29;20517;-64
2021/09/07 09:27:01;;;;;;;4.88;2.53;;;26.40;37.10;;;;;;4859531;29;20539;-64
2021/09/07 09:29:29;;;;;;;6.30;2.58;;;26.20;37.40;;;;;;4858698;29;20041;-65
2021/09/07 09:32:03;;;;;;;4.63;2.13;;;26.30;38.70;;;;;;4858091;29;20039;-66
2021/09/07 09:34:30;;;;;;;5.10;2.80;;;26.70;39.40;;;;;;4859078;29;20049;-65
2021/09/07 09:37:05;;;;;;;4.88;2.75;;;27.20;38.20;;;;;;4859739;29;20033;-64
2021/09/07 09:39:49;;;;;;;6.28;3.00;;;27.60;37.40;;;;;;4859128;29;20032;-64
2021/09/07 09:42:29;;;;;;;6.03;2.88;;;28.00;36.20;;;;;;4853790;29;20393;-67
2021/09/07 09:45:08;;;;;;;5.32;3.05;;;28.40;36.10;;;;;;4870475;29;20029;-65
2021/09/07 09:47:41;;;;;;;5.15;2.50;;;28.70;35.80;;;;;;4874241;29;20509;-66
2021/09/07 09:50:08;;;;;;;5.57;3.00;;;28.90;36.10;;;;;;4859450;29;20037;-65
2021/09/07 09:52:43;;;;;;;6.28;3.22;;;29.20;35.40;;;;;;4859541;29;20036;-65
2021/09/07 09:55:11;;;;;;;6.55;2.80;;;29.40;35.50;;;;;;4859707;29;20030;-66
2021/09/07 09:57:38;;;;;;;5.32;2.80;;;29.60;35.60;;;;;;4859432;29;20375;-66
2021/09/07 10:00:12;;;;;;;5.45;2.80;;;29.90;35.60;;;;;;4865904;29;20025;-66
2021/09/07 10:02:38;;;;;;;5.82;2.70;;;30.30;35.10;;;;;;4877415;29;20025;-66
2021/09/07 10:05:04;;;;;;;5.38;3.00;;;30.50;34.80;;;;;;4877689;29;20033;-66
2021/09/07 10:07:32;;;;;;;5.80;3.00;;;30.70;34.30;;;;;;4877917;29;20025;-66
2021/09/07 10:09:58;;;;;;;5.57;2.90;;;30.60;34.40;;;;;;4877993;29;20044;-64
2021/09/07 10:12:28;;;;;;;5.85;2.70;;;30.80;33.80;;;;;;4877851;29;20104;-64
2021/09/07 10:15:10;;;;;;;5.55;2.80;;;30.80;33.70;;;;;;4878242;29;20033;-64
2021/09/07 10:17:48;;;;;;;6.45;2.90;;;31.00;32.40;;;;;;4877898;29;20017;-66
2021/09/07 10:20:36;;;;;;;6.25;2.88;;;30.80;33.10;;;;;;4860129;29;20025;-68
2021/09/07 10:23:25;;;;;;;5.10;2.50;;;30.80;33.00;;;;;;4855164;29;20391;-67
2021/09/07 10:26:01;;;;;;;5.53;2.50;;;30.90;33.20;;;;;;4859955;29;20041;-67
2021/09/07 10:28:55;;;;;;;5.15;2.33;;;31.20;33.20;;;;;;4858574;29;20033;-68
2021/09/07 10:31:24;;;;;;;4.78;2.40;;;31.50;32.80;;;;;;4858775;29;20048;-68
2021/09/07 10:33:56;;;;;;;5.30;2.38;;;31.70;32.60;;;;;;4859390;29;20043;-69
2021/09/07 10:36:27;;;;;;;6.28;2.42;;;32.10;32.20;;;;;;4857636;29;20595;-70
2021/09/07 10:38:54;;;;;;;6.35;2.50;;;32.30;32.10;;;;;;4859167;29;20037;-68
2021/09/07 10:41:44;;;;;;;5.38;2.15;;;32.50;31.70;;;;;;4858280;29;20064;-65
2021/09/07 10:44:27;;;;;;;6.20;2.30;;;32.60;31.50;;;;;;4849215;29;20397;-64
2021/09/07 10:46:56;;;;;;;6.90;2.50;;;32.80;31.30;;;;;;4857136;29;20061;-66
2021/09/07 10:49:32;;;;;;;6.22;2.78;;;32.80;31.30;;;;;;4858600;29;20025;-66
2021/09/07 10:52:12;;;;;;;6.10;2.65;;;32.80;30.80;;;;;;4867359;29;20480;-65
2021/09/07 10:54:48;;;;;;;6.20;2.78;;;32.80;30.00;;;;;;4868689;29;20080;-66
2021/09/07 10:57:35;;;;;;;5.72;2.50;;;32.90;30.50;;;;;;4848011;29;20054;-66
2021/09/07 11:00:17;;;;;;;6.25;2.65;;;32.80;31.40;;;;;;4858409;29;20463;-65
2021/09/07 11:02:43;;;;;;;8.50;2.83;;;33.00;30.70;;;;;;4857860;29;20570;-65
2021/09/07 11:05:28;;;;;;;6.68;2.33;;;33.10;31.20;;;;;;4858492;29;20038;-66
2021/09/07 11:08:03;;;;;;;6.80;2.90;;;33.30;31.20;;;;;;4863017;29;20025;-66
2021/09/07 11:10:55;;;;;;;6.20;2.90;;;33.60;31.00;;;;;;4854263;29;20405;-66
2021/09/07 11:13:29;;;;;;;7.20;3.10;;;33.80;30.20;;;;;;4854558;29;20497;-65
2021/09/07 11:16:00;;;;;;;6.10;2.53;;;33.90;30.00;;;;;;4858817;29;20048;-66
2021/09/07 11:18:28;;;;;;;7.60;3.20;;;34.00;30.80;;;;;;4860824;29;20033;-64
2021/09/07 11:20:56;;;;;;;8.10;3.50;;;34.20;30.30;;;;;;4861143;29;20033;-65
2021/09/07 11:23:26;;;;;;;9.48;3.70;;;34.30;30.30;;;;;;4861523;29;20513;-66
2021/09/07 11:25:58;;;;;;;8.77;3.40;;;34.30;30.30;;;;;;4861222;29;20029;-66
2021/09/07 11:28:24;;;;;;;6.85;3.20;;;34.40;30.10;;;;;;4861356;29;20173;-66
2021/09/07 11:30:52;;;;;;;7.00;3.33;;;34.40;30.00;;;;;;4861489;29;20055;-65
2021/09/07 11:33:18;;;;;;;7.50;3.53;;;34.50;30.00;;;;;;4861198;29;20033;-65
2021/09/07 11:35:50;;;;;;;9.30;3.28;;;34.60;30.00;;;;;;4861291;29;20096;-66
2021/09/07 11:38:21;;;;;;;8.00;3.40;;;34.60;29.80;;;;;;4860194;29;20116;-67
2021/09/07 11:40:59;;;;;;;7.15;3.33;;;34.70;29.80;;;;;;4861504;29;20030;-65
2021/09/07 11:43:33;;;;;;;7.85;3.10;;;34.60;29.50;;;;;;4861417;29;20112;-65
2021/09/07 11:46:20;;;;;;;7.57;3.30;;;34.60;29.80;;;;;;4861317;29;20493;-65
2021/09/07 11:48:47;;;;;;;7.07;3.03;;;34.40;29.60;;;;;;4860861;29;20037;-66
2021/09/07 11:51:16;;;;;;;7.55;2.75;;;34.30;29.90;;;;;;4861108;29;20037;-66
2021/09/07 11:53:42;;;;;;;8.07;3.20;;;34.30;29.90;;;;;;4860560;29;20045;-65
2021/09/07 11:56:18;;;;;;;6.78;3.13;;;34.60;29.90;;;;;;4860710;29;20021;-67
2021/09/07 11:58:44;;;;;;;7.45;2.80;;;34.90;29.90;;;;;;4861253;29;20026;-65
2021/09/07 12:01:15;;;;;;;5.88;3.05;;;34.90;29.90;;;;;;4860796;29;20121;-66
2021/09/07 12:04:09;;;;;;;6.38;2.95;;;35.00;29.90;;;;;;4860161;29;20061;-67
2021/09/07 12:06:42;;;;;;;6.43;2.85;;;35.10;29.50;;;;;;4844468;29;20036;-65
2021/09/07 12:09:21;;;;;;;6.93;3.10;;;35.20;30.00;;;;;;4861382;29;20082;-65
2021/09/07 12:11:49;;;;;;;7.13;3.15;;;35.30;29.50;;;;;;4860932;29;20029;-64
2021/09/07 12:14:21;;;;;;;6.10;2.60;;;35.30;29.50;;;;;;4861044;29;20018;-65
2021/09/07 12:17:06;;;;;;;5.85;2.65;;;35.40;29.50;;;;;;4860761;29;20089;-65
2021/09/07 12:19:38;;;;;;;5.53;2.60;;;35.60;29.40;;;;;;4833968;29;20047;-67
2021/09/07 12:22:40;;;;;;;6.10;2.85;;;35.70;29.20;;;;;;4860446;29;20037;-67
2021/09/07 12:25:20;;;;;;;5.65;2.50;;;35.80;28.60;;;;;;4842741;29;20386;-67
2021/09/07 12:27:46;;;;;;;5.53;2.60;;;35.80;28.80;;;;;;4851119;29;20044;-66
2021/09/07 12:30:33;;;;;;;6.18;2.70;;;35.80;29.00;;;;;;4860672;29;20389;-66
2021/09/07 12:33:08;;;;;;;4.45;2.08;;;36.00;28.80;;;;;;4860938;29;20029;-67
2021/09/07 12:35:55;;;;;;;4.35;2.22;;;36.00;28.70;;;;;;4860236;29;20036;-66
2021/09/07 12:38:23;;;;;;;5.40;2.13;;;36.00;28.40;;;;;;4859889;29;20026;-65
2021/09/07 12:40:54;;;;;;;4.38;2.25;;;36.00;28.80;;;;;;4860699;29;20025;-65
2021/09/07 12:43:26;;;;;;;4.03;1.90;;;36.20;28.50;;;;;;4859740;29;20029;-66
2021/09/07 12:46:06;;;;;;;4.05;1.75;;;36.30;28.80;;;;;;4859843;29;20426;-67
2021/09/07 12:48:33;;;;;;;3.40;1.80;;;36.40;28.60;;;;;;4860588;29;20029;-67